createdAt,value
2018-07-16T00:00:51.734Z,6.43
2018-07-16T00:03:21.031Z,7.00
2018-07-16T00:05:49.706Z,7.10
2018-07-16T00:08:18.360Z,6.87
2018-07-16T00:10:47.031Z,7.23
2018-07-16T00:13:15.731Z,6.67
2018-07-16T00:15:44.368Z,7.03
2018-07-16T00:18:13.075Z,7.10
2018-07-16T00:20:41.722Z,6.60
2018-07-16T00:23:10.415Z,6.63
2018-07-16T00:25:39.069Z,7.03
2018-07-16T00:28:07.764Z,7.33
2018-07-16T00:30:36.462Z,7.67
2018-07-16T00:33:05.137Z,8.00
2018-07-16T00:35:33.849Z,7.63
2018-07-16T00:38:02.500Z,6.83
2018-07-16T00:40:31.287Z,6.73
2018-07-16T00:42:59.965Z,7.37
2018-07-16T00:45:28.627Z,7.10
2018-07-16T00:47:57.316Z,7.57
2018-07-16T00:50:25.952Z,6.63
2018-07-16T00:52:54.651Z,6.93
2018-07-16T00:55:23.289Z,7.03
2018-07-16T00:57:52.262Z,6.90
2018-07-16T01:00:20.914Z,7.17
2018-07-16T01:02:49.550Z,6.80
2018-07-16T01:05:18.234Z,6.60
2018-07-16T01:07:46.914Z,6.57
2018-07-16T01:10:15.599Z,7.10
2018-07-16T01:12:44.251Z,7.30
2018-07-16T01:15:12.948Z,7.57
2018-07-16T01:17:41.610Z,7.30
2018-07-16T01:20:10.289Z,6.37
2018-07-16T01:22:38.978Z,8.20
2018-07-16T01:25:07.613Z,7.77
2018-07-16T01:27:36.278Z,6.93
2018-07-16T01:30:05.051Z,6.97
2018-07-16T01:32:33.895Z,7.83
2018-07-16T01:35:02.552Z,7.77
2018-07-16T01:37:31.203Z,7.33
2018-07-16T01:39:59.887Z,7.97
2018-07-16T01:42:28.553Z,7.63
2018-07-16T01:44:57.240Z,7.77
2018-07-16T01:47:25.897Z,8.13
2018-07-16T01:49:54.753Z,8.23
2018-07-16T01:52:23.416Z,8.00
2018-07-16T01:54:52.271Z,8.17
2018-07-16T01:57:20.964Z,7.33
2018-07-16T01:59:49.637Z,7.67
2018-07-16T02:02:18.298Z,7.50
2018-07-16T02:04:47.053Z,7.83
2018-07-16T02:07:15.743Z,8.03
2018-07-16T02:09:44.437Z,8.13
2018-07-16T02:12:13.149Z,7.63
2018-07-16T02:14:41.791Z,8.13
2018-07-16T02:17:10.475Z,7.43
2018-07-16T02:19:39.187Z,7.87
2018-07-16T02:22:07.872Z,7.23
2018-07-16T02:24:36.553Z,8.73
2018-07-16T02:27:05.256Z,9.20
2018-07-16T02:29:33.925Z,8.43
2018-07-16T02:32:02.630Z,9.67
2018-07-16T02:34:31.298Z,9.80
2018-07-16T02:36:59.995Z,9.20
2018-07-16T02:39:28.643Z,8.83
2018-07-16T02:41:57.335Z,10.63
2018-07-16T02:44:26.013Z,9.90
2018-07-16T02:46:54.676Z,9.83
2018-07-16T02:49:23.363Z,10.87
2018-07-16T02:51:52.052Z,10.17
2018-07-16T02:54:20.755Z,10.43
2018-07-16T02:56:49.455Z,11.70
2018-07-16T02:59:18.125Z,10.77
2018-07-16T03:01:46.833Z,11.20
2018-07-16T03:04:15.521Z,10.20
2018-07-16T03:06:44.228Z,10.30
2018-07-16T03:09:12.886Z,10.50
2018-07-16T03:11:41.569Z,10.53
2018-07-16T03:14:10.237Z,11.30
2018-07-16T03:16:38.963Z,9.97
2018-07-16T03:19:07.666Z,10.10
2018-07-16T03:21:36.412Z,11.23
2018-07-16T03:24:05.193Z,12.33
2018-07-16T03:26:33.892Z,12.23
2018-07-16T03:29:02.626Z,13.13
2018-07-16T03:31:31.432Z,12.87
2018-07-16T03:34:00.108Z,13.93
2018-07-16T03:36:28.775Z,13.20
2018-07-16T03:38:57.478Z,13.87
2018-07-16T03:41:26.142Z,13.93
2018-07-16T03:43:54.844Z,13.40
2018-07-16T03:46:23.527Z,12.83
2018-07-16T03:48:52.214Z,13.93
2018-07-16T03:51:20.866Z,14.37
2018-07-16T03:53:49.530Z,15.40
2018-07-16T03:56:18.213Z,15.47
2018-07-16T03:58:46.915Z,15.47
2018-07-16T04:01:15.617Z,14.67
2018-07-16T04:03:44.277Z,15.20
2018-07-16T04:06:12.982Z,15.33
2018-07-16T04:08:41.638Z,15.13
2018-07-16T04:11:10.329Z,15.60
2018-07-16T04:13:39.036Z,14.60
2018-07-16T04:16:07.801Z,14.80
2018-07-16T04:18:36.498Z,14.90
2018-07-16T04:21:05.167Z,14.63
2018-07-16T04:23:33.865Z,14.33
2018-07-16T04:26:02.548Z,14.40
2018-07-16T04:28:31.200Z,15.27
2018-07-16T04:31:00.055Z,15.17
2018-07-16T04:33:28.650Z,14.67
2018-07-16T04:35:57.326Z,15.47
2018-07-16T04:38:26.026Z,14.83
2018-07-16T04:40:54.758Z,14.30
2018-07-16T04:43:23.448Z,13.77
2018-07-16T04:45:52.149Z,14.13
2018-07-16T04:48:20.814Z,14.07
2018-07-16T04:50:49.473Z,13.70
2018-07-16T04:53:18.200Z,13.47
2018-07-16T04:55:46.873Z,14.17
2018-07-16T04:58:15.591Z,13.93
2018-07-16T05:00:44.237Z,14.07
2018-07-16T05:03:12.951Z,12.83
2018-07-16T05:05:41.601Z,13.30
2018-07-16T05:08:10.282Z,13.93
2018-07-16T05:10:38.973Z,14.20
2018-07-16T05:13:07.698Z,13.57
2018-07-16T05:15:36.394Z,15.43
2018-07-16T05:18:05.121Z,14.73
2018-07-16T05:20:33.796Z,14.10
2018-07-16T05:23:02.555Z,15.17
2018-07-16T05:25:31.416Z,14.27
2018-07-16T05:28:00.115Z,15.03
2018-07-16T05:30:28.819Z,14.67
2018-07-16T05:32:57.494Z,15.07
2018-07-16T05:35:26.162Z,14.43
2018-07-16T05:37:54.818Z,15.20
2018-07-16T05:40:23.568Z,14.50
2018-07-16T05:42:52.212Z,14.37
2018-07-16T05:45:20.944Z,15.03
2018-07-16T05:47:49.596Z,14.27
2018-07-16T05:50:18.319Z,15.20
2018-07-16T05:52:46.996Z,13.93
2018-07-16T05:55:15.682Z,14.83
2018-07-16T05:57:44.415Z,15.50
2018-07-16T06:00:13.081Z,15.43
2018-07-16T06:02:41.829Z,15.77
2018-07-16T06:05:10.482Z,15.87
2018-07-16T06:07:39.178Z,15.40
2018-07-16T06:10:07.866Z,15.30
2018-07-16T06:12:36.501Z,15.50
2018-07-16T06:15:05.288Z,15.33
2018-07-16T06:17:33.942Z,15.23
2018-07-16T06:20:02.627Z,15.27
2018-07-16T06:22:31.325Z,15.07
2018-07-16T06:25:00.033Z,16.03
2018-07-16T06:27:28.716Z,15.40
2018-07-16T06:29:57.384Z,15.33
2018-07-16T06:32:26.109Z,13.90
2018-07-16T06:34:54.749Z,14.67
2018-07-16T06:37:23.460Z,14.40
2018-07-16T06:39:52.104Z,13.77
2018-07-16T06:42:21.357Z,14.40
2018-07-16T06:44:50.042Z,13.70
2018-07-16T06:47:18.711Z,13.60
2018-07-16T06:49:47.427Z,13.63
2018-07-16T06:52:22.717Z,14.20
2018-07-16T06:54:51.415Z,13.83
2018-07-16T06:57:20.113Z,14.17
2018-07-16T06:59:48.798Z,13.00
2018-07-16T07:02:17.483Z,14.20
2018-07-16T07:04:46.158Z,13.40
2018-07-16T07:07:14.866Z,14.13
2018-07-16T07:09:43.662Z,14.43
2018-07-16T07:12:12.352Z,12.73
2018-07-16T07:14:41.038Z,12.40
2018-07-16T07:17:09.922Z,11.73
2018-07-16T07:19:38.594Z,12.40
2018-07-16T07:22:07.414Z,10.50
2018-07-16T07:24:36.073Z,9.83
2018-07-16T07:27:04.943Z,10.07
2018-07-16T07:29:33.605Z,8.57
2018-07-16T07:32:02.314Z,10.03
2018-07-16T07:34:30.990Z,8.17
2018-07-16T07:36:59.677Z,9.13
2018-07-16T07:39:28.320Z,8.13
2018-07-16T07:41:57.048Z,8.93
2018-07-16T07:44:25.750Z,9.73
2018-07-16T07:46:54.618Z,9.70
2018-07-16T07:49:23.307Z,9.13
2018-07-16T07:51:52.047Z,9.33
2018-07-16T07:54:20.849Z,9.77
2018-07-16T07:56:49.434Z,8.67
2018-07-16T07:59:18.161Z,8.87
2018-07-16T08:01:46.853Z,9.00
2018-07-16T08:04:15.545Z,9.00
2018-07-16T08:06:50.308Z,9.13
2018-07-16T08:09:19.028Z,9.13
2018-07-16T08:11:47.711Z,8.33
2018-07-16T08:14:16.497Z,9.30
2018-07-16T08:16:45.210Z,8.90
2018-07-16T08:19:13.947Z,8.70
2018-07-16T08:21:42.658Z,9.50
2018-07-16T08:24:11.345Z,9.03
2018-07-16T08:26:40.259Z,9.40
2018-07-16T08:29:08.935Z,8.83
2018-07-16T08:31:37.619Z,9.67
2018-07-16T08:34:06.893Z,9.87
2018-07-16T08:36:35.602Z,9.47
2018-07-16T08:39:05.522Z,9.30
2018-07-16T08:41:34.267Z,9.80
2018-07-16T08:44:03.290Z,8.67
2018-07-16T08:46:32.240Z,9.00
2018-07-16T08:49:00.972Z,8.77
2018-07-16T08:51:29.718Z,10.07
2018-07-16T08:53:58.418Z,8.50
2018-07-16T08:56:27.245Z,9.20
2018-07-16T08:58:56.065Z,7.80
2018-07-16T09:01:24.773Z,7.67
2018-07-16T09:03:53.495Z,6.43
2018-07-16T09:06:22.179Z,5.47
2018-07-16T09:08:50.839Z,5.87
2018-07-16T09:11:19.627Z,5.30
2018-07-16T09:13:48.210Z,5.37
2018-07-16T09:16:16.537Z,5.20
2018-07-16T09:18:45.199Z,6.70
2018-07-16T09:21:13.857Z,6.00
2018-07-16T09:23:42.562Z,5.77
2018-07-16T09:26:11.285Z,6.37
2018-07-16T09:28:39.934Z,6.23
2018-07-16T09:31:08.943Z,5.87
2018-07-16T09:33:37.610Z,6.13
2018-07-16T09:36:06.316Z,5.93
2018-07-16T09:38:34.963Z,6.40
2018-07-16T09:41:03.306Z,6.87
2018-07-16T09:43:32.021Z,6.10
2018-07-16T09:46:00.677Z,6.23
2018-07-16T09:48:29.369Z,5.87
2018-07-16T09:50:58.051Z,6.67
2018-07-16T09:53:26.729Z,5.93
2018-07-16T09:55:55.386Z,6.07
2018-07-16T09:58:24.095Z,5.53
2018-07-16T10:00:57.976Z,6.23
2018-07-16T10:03:26.675Z,6.73
2018-07-16T10:05:55.334Z,6.10
2018-07-16T10:08:24.028Z,6.63
2018-07-16T10:10:52.715Z,6.73
2018-07-16T10:13:21.382Z,6.70
2018-07-16T10:15:50.062Z,6.17
2018-07-16T10:18:18.698Z,6.77
2018-07-16T10:20:47.433Z,5.97
2018-07-16T10:23:16.088Z,5.90
2018-07-16T10:25:44.815Z,6.47
2018-07-16T10:28:13.466Z,6.80
2018-07-16T10:30:42.137Z,6.03
2018-07-16T10:33:10.878Z,6.20
2018-07-16T10:35:39.173Z,6.93
2018-07-16T10:38:14.370Z,6.87
2018-07-16T10:40:43.045Z,7.83
2018-07-16T10:43:11.715Z,7.10
2018-07-16T10:45:40.425Z,7.90
2018-07-16T10:48:09.075Z,8.00
2018-07-16T10:50:37.864Z,7.50
2018-07-16T10:53:06.715Z,6.83
2018-07-16T10:55:35.416Z,6.93
2018-07-16T10:58:04.125Z,7.60
2018-07-16T11:00:32.814Z,6.67
2018-07-16T11:03:01.511Z,8.00
2018-07-16T11:05:30.296Z,7.40
2018-07-16T11:07:58.890Z,8.33
2018-07-16T11:10:27.721Z,8.07
2018-07-16T11:12:56.374Z,7.47
2018-07-16T11:15:25.047Z,6.83
2018-07-16T11:17:53.746Z,7.87
2018-07-16T11:20:22.498Z,7.00
2018-07-16T11:22:51.217Z,5.63
2018-07-16T11:25:19.922Z,5.77
2018-07-16T11:27:48.619Z,6.10
2018-07-16T11:30:17.282Z,5.27
2018-07-16T11:32:45.983Z,5.40
2018-07-16T11:35:14.695Z,5.20
2018-07-16T11:37:43.368Z,4.30
2018-07-16T11:40:12.066Z,5.07
2018-07-16T11:42:40.749Z,4.90
2018-07-16T11:45:09.472Z,5.37
2018-07-16T11:47:38.160Z,4.53
2018-07-16T11:50:06.886Z,4.80
2018-07-16T11:52:35.596Z,4.90
2018-07-16T11:55:03.941Z,4.40
2018-07-16T11:57:32.602Z,4.27
2018-07-16T12:00:01.436Z,5.10
2018-07-16T12:02:30.116Z,4.33
2018-07-16T12:04:58.803Z,3.70
2018-07-16T12:07:27.517Z,3.43
2018-07-16T12:09:56.246Z,4.00
2018-07-16T12:12:24.952Z,3.57
2018-07-16T12:14:53.582Z,3.33
2018-07-16T12:17:28.765Z,3.47
2018-07-16T12:19:57.417Z,3.40
2018-07-16T12:22:26.163Z,3.93
2018-07-16T12:24:54.801Z,4.00
2018-07-16T12:27:23.515Z,3.93
2018-07-16T12:29:52.175Z,4.00
2018-07-16T12:32:20.835Z,4.00
2018-07-16T12:34:49.545Z,3.60
2018-07-16T12:37:18.286Z,3.80
2018-07-16T12:39:46.599Z,3.63
2018-07-16T12:42:15.257Z,3.83
2018-07-16T12:44:43.581Z,3.80
2018-07-16T12:47:12.269Z,3.53
2018-07-16T12:49:47.302Z,3.23
2018-07-16T12:52:15.966Z,3.13
2018-07-16T12:54:44.673Z,3.30
2018-07-16T12:57:13.365Z,3.50
2018-07-16T12:59:42.050Z,3.57
2018-07-16T13:02:10.962Z,3.20
2018-07-16T13:04:39.656Z,3.03
2018-07-16T13:07:08.374Z,3.17
2018-07-16T13:09:37.047Z,3.20
2018-07-16T13:12:05.735Z,3.50
2018-07-16T13:14:34.045Z,3.60
2018-07-16T13:17:02.746Z,3.37
2018-07-16T13:19:31.409Z,3.57
2018-07-16T13:22:00.130Z,3.20
2018-07-16T13:24:28.854Z,3.27
2018-07-16T13:26:57.527Z,3.07
2018-07-16T13:29:26.220Z,3.30
2018-07-16T13:31:54.903Z,3.27
2018-07-16T13:34:23.594Z,3.10
2018-07-16T13:36:52.260Z,3.17
2018-07-16T13:39:20.949Z,2.90
2018-07-16T13:41:49.622Z,3.20
2018-07-16T13:44:18.327Z,2.80
2018-07-16T13:46:47.023Z,2.67
2018-07-16T13:49:15.734Z,2.63
2018-07-16T13:51:44.781Z,2.83
2018-07-16T13:54:13.418Z,3.33
2018-07-16T13:56:42.136Z,3.20
2018-07-16T13:59:11.011Z,3.10
2018-07-16T14:01:40.230Z,3.27
2018-07-16T14:04:08.890Z,3.73
2018-07-16T14:09:31.032Z,3.50
2018-07-16T14:11:59.847Z,3.67
2018-07-16T14:14:28.623Z,3.60
2018-07-16T14:16:57.333Z,3.47
2018-07-16T14:19:26.036Z,3.47
2018-07-16T14:21:54.752Z,3.90
2018-07-16T14:24:23.486Z,3.43
2018-07-16T14:26:52.154Z,3.83
2018-07-16T14:29:20.836Z,4.23
2018-07-16T14:31:50.054Z,3.53
2018-07-16T14:34:18.750Z,3.27
2018-07-16T14:36:47.491Z,3.67
2018-07-16T14:39:16.251Z,3.33
2018-07-16T14:41:45.026Z,3.40
2018-07-16T14:44:13.733Z,2.90
2018-07-16T14:46:49.056Z,3.43
2018-07-16T14:49:18.070Z,3.30
2018-07-16T14:51:46.750Z,3.13
2018-07-16T14:54:15.424Z,3.60
2018-07-16T14:56:44.133Z,3.60
2018-07-16T14:59:12.794Z,3.60
2018-07-16T15:01:41.514Z,3.37
2018-07-16T15:04:10.212Z,3.57
2018-07-16T15:06:38.865Z,3.57
2018-07-16T15:09:09.126Z,3.50
2018-07-16T15:11:37.837Z,3.00
2018-07-16T15:14:08.136Z,3.00
2018-07-16T15:16:36.844Z,2.93
2018-07-16T15:19:05.581Z,3.10
2018-07-16T15:21:34.438Z,3.50
2018-07-16T15:24:03.002Z,2.90
2018-07-16T15:26:32.161Z,3.87
2018-07-16T15:29:00.858Z,3.07
2018-07-16T15:31:29.572Z,2.93
2018-07-16T15:33:58.325Z,3.20
2018-07-16T15:36:26.982Z,3.33
2018-07-16T15:38:55.673Z,3.67
2018-07-16T15:41:24.428Z,3.10
2018-07-16T15:43:53.122Z,4.07
2018-07-16T15:46:21.822Z,3.60
2018-07-16T15:48:50.524Z,3.57
2018-07-16T15:51:19.202Z,3.80
2018-07-16T15:53:48.000Z,3.00
2018-07-16T15:56:16.683Z,3.77
2018-07-16T15:58:51.647Z,3.70
2018-07-16T16:01:19.989Z,3.37
2018-07-16T16:03:48.697Z,3.30
2018-07-16T16:06:17.466Z,3.40
2018-07-16T16:08:46.122Z,3.60
2018-07-16T16:11:14.841Z,3.23
2018-07-16T16:13:43.526Z,3.90
2018-07-16T16:16:12.235Z,4.20
2018-07-16T16:18:40.920Z,3.83
2018-07-16T16:21:09.610Z,4.10
2018-07-16T16:23:38.314Z,4.20
2018-07-16T16:26:07.062Z,4.47
2018-07-16T16:28:35.731Z,4.00
2018-07-16T16:31:04.438Z,3.97
2018-07-16T16:33:33.142Z,3.93
2018-07-16T16:36:01.930Z,3.70
2018-07-16T16:38:30.624Z,3.90
2018-07-16T16:40:59.889Z,3.97
2018-07-16T16:43:28.662Z,3.47
2018-07-16T16:45:57.337Z,3.40
2018-07-16T16:48:26.026Z,3.87
2018-07-16T16:50:54.693Z,3.53
2018-07-16T16:53:23.429Z,4.03
2018-07-16T16:55:52.182Z,3.40
2018-07-16T16:58:20.833Z,3.23
2018-07-16T17:00:50.065Z,3.73
2018-07-16T17:03:18.812Z,3.70
2018-07-16T17:05:47.108Z,3.67
2018-07-16T17:08:15.421Z,3.60
2018-07-16T17:10:44.062Z,3.83
2018-07-16T17:13:12.764Z,3.73
2018-07-16T17:15:41.443Z,3.80
2018-07-16T17:18:10.197Z,3.37
2018-07-16T17:20:38.849Z,3.40
2018-07-16T17:23:07.600Z,3.73
2018-07-16T17:25:36.285Z,3.50
2018-07-16T17:28:05.007Z,3.03
2018-07-16T17:30:33.711Z,3.43
2018-07-16T17:33:04.424Z,3.57
2018-07-16T17:35:33.463Z,3.30
2018-07-16T17:38:02.158Z,3.50
2018-07-16T17:40:30.465Z,3.50
2018-07-16T17:42:59.261Z,4.00
2018-07-16T17:45:27.939Z,3.83
2018-07-16T17:47:56.622Z,3.80
2018-07-16T17:50:25.320Z,5.30
2018-07-16T17:52:53.987Z,4.40
2018-07-16T17:55:22.686Z,3.80
2018-07-16T17:57:51.361Z,3.80
2018-07-16T18:00:20.116Z,4.00
2018-07-16T18:02:48.808Z,3.70
2018-07-16T18:05:18.299Z,4.10
2018-07-16T18:07:47.052Z,3.90
2018-07-16T18:10:16.260Z,3.57
2018-07-16T18:12:44.965Z,3.73
2018-07-16T18:15:13.745Z,3.70
2018-07-16T18:17:42.518Z,4.00
2018-07-16T18:20:10.875Z,3.80
2018-07-16T18:22:39.546Z,4.00
2018-07-16T18:25:09.335Z,4.10
2018-07-16T18:27:38.886Z,3.90
2018-07-16T18:30:07.575Z,3.90
2018-07-16T18:32:36.221Z,4.20
2018-07-16T18:35:05.011Z,4.00
2018-07-16T18:37:33.929Z,3.30
2018-07-16T18:40:03.238Z,3.67
2018-07-16T18:42:31.958Z,3.93
2018-07-16T18:45:00.673Z,4.03
2018-07-16T18:47:29.346Z,4.30
2018-07-16T18:49:58.008Z,4.00
2018-07-16T18:52:26.686Z,4.17
2018-07-16T18:54:57.353Z,4.40
2018-07-16T18:57:26.034Z,3.70
2018-07-16T18:59:54.714Z,4.20
2018-07-16T19:02:23.061Z,3.80
2018-07-16T19:04:51.741Z,4.37
2018-07-16T19:07:22.898Z,3.83
2018-07-16T19:09:52.257Z,4.70
2018-07-16T19:12:21.128Z,4.03
2018-07-16T19:14:49.866Z,4.20
2018-07-16T19:17:18.736Z,4.27
2018-07-16T19:19:47.094Z,4.63
2018-07-16T19:22:15.820Z,4.73
2018-07-16T19:24:44.556Z,4.60
2018-07-16T19:27:13.245Z,4.83
2018-07-16T19:29:41.982Z,4.43
2018-07-16T19:32:10.697Z,4.43
2018-07-16T19:34:39.418Z,5.13
2018-07-16T19:37:08.653Z,6.93
2018-07-16T19:39:37.326Z,7.17
2018-07-16T19:42:06.073Z,5.27
2018-07-16T19:44:34.799Z,5.00
2018-07-16T19:47:03.534Z,5.43
2018-07-16T19:49:32.233Z,4.50
2018-07-16T19:52:00.943Z,4.70
2018-07-16T19:54:29.659Z,5.30
2018-07-16T19:56:58.424Z,5.37
2018-07-16T19:59:27.293Z,5.00
2018-07-16T20:01:55.946Z,7.23
2018-07-16T20:04:24.654Z,5.20
2018-07-16T20:06:56.225Z,5.13
2018-07-16T20:09:25.570Z,5.00
2018-07-16T20:11:54.271Z,4.93
2018-07-16T20:14:23.581Z,5.97
2018-07-16T20:16:52.574Z,5.63
2018-07-16T20:19:21.288Z,5.50
2018-07-16T20:21:50.053Z,6.03
2018-07-16T20:24:18.757Z,5.73
2018-07-16T20:26:47.536Z,5.60
2018-07-16T20:29:16.236Z,5.97
2018-07-16T20:31:44.905Z,8.33
2018-07-16T20:34:14.050Z,14.40
2018-07-16T20:36:42.728Z,7.07
2018-07-16T20:39:11.418Z,7.00
2018-07-16T20:41:40.149Z,6.80
2018-07-16T20:44:08.797Z,7.20
2018-07-16T20:46:37.494Z,6.27
2018-07-16T20:49:06.317Z,6.60
2018-07-16T20:51:34.962Z,6.70
2018-07-16T20:54:03.661Z,7.27
2018-07-16T20:56:32.363Z,8.93
2018-07-16T20:59:01.190Z,6.80
2018-07-16T21:01:29.885Z,6.50
2018-07-16T21:03:58.590Z,6.53
2018-07-16T21:06:27.278Z,7.80
2018-07-16T21:08:55.928Z,6.30
2018-07-16T21:11:24.614Z,6.87
2018-07-16T21:13:53.358Z,9.20
2018-07-16T21:16:22.052Z,9.10
2018-07-16T21:18:50.764Z,7.17
2018-07-16T21:21:19.477Z,8.00
2018-07-16T21:23:48.183Z,7.77
2018-07-16T21:26:16.853Z,7.13
2018-07-16T21:28:45.564Z,6.77
2018-07-16T21:31:14.223Z,8.73
2018-07-16T21:33:42.931Z,13.33
2018-07-16T21:36:11.594Z,7.73
2018-07-16T21:38:40.276Z,8.17
2018-07-16T21:41:08.977Z,12.47
2018-07-16T21:43:37.679Z,7.40
2018-07-16T21:46:06.502Z,6.60
2018-07-16T21:48:35.189Z,6.77
2018-07-16T21:51:03.869Z,6.50
2018-07-16T21:53:32.527Z,6.33
2018-07-16T21:56:01.240Z,7.17
2018-07-16T21:58:29.886Z,6.83
2018-07-16T22:00:58.576Z,7.20
2018-07-16T22:03:27.262Z,6.63
2018-07-16T22:05:55.970Z,7.57
2018-07-16T22:08:24.644Z,7.77
2018-07-16T22:10:53.363Z,7.83
2018-07-16T22:13:22.065Z,7.50
2018-07-16T22:15:50.763Z,7.57
2018-07-16T22:18:19.425Z,7.23
2018-07-16T22:20:48.098Z,8.50
2018-07-16T22:23:16.765Z,12.20
2018-07-16T22:25:45.886Z,11.47
2018-07-16T22:28:14.545Z,11.33
2018-07-16T22:30:43.482Z,9.80
2018-07-16T22:33:12.150Z,7.03
2018-07-16T22:35:40.817Z,6.90
2018-07-16T22:38:09.494Z,6.97
2018-07-16T22:40:38.196Z,7.37
2018-07-16T22:43:06.903Z,7.80
2018-07-16T22:45:35.543Z,6.93
2018-07-16T22:48:04.264Z,7.40
2018-07-16T22:50:32.906Z,10.33
2018-07-16T22:53:01.570Z,14.20
2018-07-16T22:55:30.218Z,9.63
2018-07-16T22:57:58.899Z,8.60
2018-07-16T23:00:27.555Z,7.60
2018-07-16T23:02:56.220Z,7.30
2018-07-16T23:05:24.968Z,7.80
2018-07-16T23:07:53.636Z,8.50
2018-07-16T23:10:22.346Z,9.83
2018-07-16T23:12:51.013Z,11.37
2018-07-16T23:15:19.717Z,9.27
2018-07-16T23:17:48.378Z,10.87
2018-07-16T23:20:17.045Z,9.23
2018-07-16T23:22:52.718Z,8.80
2018-07-16T23:25:21.909Z,8.47
2018-07-16T23:27:50.681Z,8.93
2018-07-16T23:30:19.381Z,8.53
2018-07-16T23:32:48.038Z,8.60
2018-07-16T23:35:17.351Z,9.43
2018-07-16T23:37:46.258Z,9.27
2018-07-16T23:40:14.976Z,10.10
2018-07-16T23:42:43.687Z,10.00
2018-07-16T23:45:12.359Z,9.93
2018-07-16T23:47:41.071Z,9.30
2018-07-16T23:50:09.721Z,9.17
2018-07-16T23:52:38.485Z,9.67
2018-07-16T23:55:07.196Z,9.10
2018-07-16T23:57:35.885Z,10.13
